Time;durP1;ratioP1;P1;durP2;ratioP2;P2;SDS_P1;SDS_P2;PMS_P1;PMS_P2;Temp;Humidity;BMP_temperature;BMP_pressure;BME280_temperature;BME280_humidity;BME280_pressure;Samples;Min_cycle;Max_cycle;Signal;HPM_P1;HPM_P2
2022/10/05 00:00:16;;;;;;;1.48;0.90;;;;;;;14.21;100.00;100749.28;5029784;28;20468;-76
2022/10/05 00:02:42;;;;;;;2.72;0.90;;;;;;;14.21;100.00;100740.91;5058432;28;20029;-77
2022/10/05 00:05:19;;;;;;;1.75;0.68;;;;;;;14.18;100.00;100742.34;5042507;28;20035;-76
2022/10/05 00:07:45;;;;;;;2.90;0.73;;;;;;;14.14;100.00;100746.91;5041762;28;20068;-76
2022/10/05 00:10:13;;;;;;;2.55;0.90;;;;;;;14.13;100.00;100744.44;5076659;28;20047;-76
2022/10/05 00:12:39;;;;;;;2.33;0.80;;;;;;;14.16;100.00;100736.25;5067500;28;20037;-76
2022/10/05 00:15:09;;;;;;;1.48;0.68;;;;;;;14.17;100.00;100731.50;5069450;28;20566;-76
2022/10/05 00:17:35;;;;;;;2.92;0.52;;;;;;;14.14;100.00;100740.50;5041648;28;20377;-77
2022/10/05 00:20:00;;;;;;;3.65;0.80;;;;;;;14.12;100.00;100734.38;5007644;28;20036;-77
2022/10/05 00:22:29;;;;;;;1.50;0.60;;;;;;;14.13;100.00;100736.06;5041022;28;20424;-77
2022/10/05 00:24:56;;;;;;;2.13;0.60;;;;;;;14.16;100.00;100741.00;5033473;28;20095;-76
2022/10/05 00:27:23;;;;;;;1.83;0.82;;;;;;;14.14;100.00;100744.09;5058243;28;20120;-77
2022/10/05 00:29:50;;;;;;;1.70;0.70;;;;;;;14.17;100.00;100734.28;5075767;28;20102;-77
2022/10/05 00:32:15;;;;;;;2.47;0.80;;;;;;;14.18;100.00;100735.91;5041280;28;20041;-76
2022/10/05 00:34:41;;;;;;;2.22;1.10;;;;;;;14.19;100.00;100732.00;5057695;28;20055;-76
2022/10/05 00:37:07;;;;;;;4.20;1.20;;;;;;;14.20;100.00;100733.66;5041221;28;20116;-77
2022/10/05 00:39:33;;;;;;;2.67;0.70;;;;;;;14.20;100.00;100728.88;5049145;28;20481;-77
2022/10/05 00:42:02;;;;;;;1.20;0.77;;;;;;;14.23;100.00;100735.81;5029386;28;20033;-77
2022/10/05 00:44:36;;;;;;;1.85;0.70;;;;;;;14.23;100.00;100733.84;5050096;28;20092;-77
2022/10/05 00:47:08;;;;;;;2.45;0.80;;;;;;;14.25;100.00;100730.75;5028804;28;20041;-77
2022/10/05 00:49:48;;;;;;;1.50;0.75;;;;;;;14.24;100.00;100729.94;5055855;28;20385;-77
2022/10/05 00:52:30;;;;;;;4.40;0.70;;;;;;;14.26;100.00;100732.38;5056429;28;20465;-77
2022/10/05 00:55:05;;;;;;;1.15;0.80;;;;;;;14.27;100.00;100726.50;5060278;28;20039;-77
2022/10/05 00:58:12;;;;;;;1.48;0.77;;;;;;;14.27;100.00;100722.88;5064790;28;20032;-77
2022/10/05 01:00:49;;;;;;;3.10;1.05;;;;;;;14.28;100.00;100713.34;5020432;28;20033;-77
2022/10/05 01:03:19;;;;;;;4.60;1.15;;;;;;;14.30;100.00;100722.25;5044824;28;20056;-77
2022/10/05 01:06:09;;;;;;;2.30;1.00;;;;;;;14.31;100.00;100724.72;5057913;28;20116;-76
2022/10/05 01:08:46;;;;;;;6.15;1.30;;;;;;;14.31;100.00;100718.31;5076723;28;20067;-77
2022/10/05 01:11:15;;;;;;;2.33;1.30;;;;;;;14.32;100.00;100719.97;5063116;28;20128;-76
2022/10/05 01:14:02;;;;;;;3.58;1.58;;;;;;;14.32;100.00;100722.78;5059867;28;20039;-76
2022/10/05 01:16:27;;;;;;;4.32;1.13;;;;;;;14.35;100.00;100713.75;5044568;28;20119;-76
2022/10/05 01:19:45;;;;;;;4.70;1.40;;;;;;;14.36;100.00;100717.38;5060718;28;20052;-76
2022/10/05 01:22:36;;;;;;;3.55;1.80;;;;;;;14.35;100.00;100719.34;4966765;28;20035;-76
2022/10/05 01:25:22;;;;;;;2.13;1.13;;;;;;;14.35;100.00;100708.19;5078566;28;20052;-76
2022/10/05 01:28:27;;;;;;;2.42;1.63;;;;;;;14.38;100.00;100710.34;5060622;28;20121;-77
2022/10/05 01:31:33;;;;;;;3.35;1.33;;;;;;;14.37;100.00;100705.06;5030477;28;20492;-76
2022/10/05 01:34:08;;;;;;;2.85;1.52;;;;;;;14.37;100.00;100699.47;5051601;28;20101;-76
2022/10/05 01:37:00;;;;;;;3.28;1.65;;;;;;;14.35;100.00;100701.75;5060338;28;20032;-77
2022/10/05 01:39:56;;;;;;;6.40;1.90;;;;;;;14.35;100.00;100696.16;4982090;28;20040;-76
2022/10/05 01:43:00;;;;;;;4.97;2.00;;;;;;;14.36;100.00;100687.47;5066310;28;20537;-76
2022/10/05 01:45:32;;;;;;;3.60;1.60;;;;;;;14.32;100.00;100692.03;5046725;28;20493;-76
2022/10/05 01:48:55;;;;;;;2.65;1.48;;;;;;;14.34;100.00;100695.34;5069521;28;20047;-76
2022/10/05 01:51:36;;;;;;;4.05;1.73;;;;;;;14.34;100.00;100684.16;4998308;28;20034;-77
2022/10/05 01:54:13;;;;;;;2.78;1.60;;;;;;;14.34;100.00;100689.75;4968356;28;20073;-77
2022/10/05 01:56:45;;;;;;;1.70;1.20;;;;;;;14.35;100.00;100684.97;5020950;28;20518;-76
2022/10/05 01:59:17;;;;;;;3.95;1.60;;;;;;;14.34;100.00;100681.38;4993322;28;20026;-77
2022/10/05 02:01:52;;;;;;;1.75;1.27;;;;;;;14.35;100.00;100682.19;5013184;28;20073;-77
2022/10/05 02:04:21;;;;;;;3.67;1.65;;;;;;;14.35;100.00;100674.66;4996175;28;20135;-76
2022/10/05 02:06:48;;;;;;;2.42;1.85;;;;;;;14.33;100.00;100668.53;4947998;28;20654;-76
2022/10/05 02:09:25;;;;;;;5.32;1.70;;;;;;;14.36;100.00;100665.13;4932038;28;20129;-76
2022/10/05 02:11:54;;;;;;;2.67;1.40;;;;;;;14.35;100.00;100645.84;4974483;28;20632;-76
2022/10/05 02:14:23;;;;;;;3.65;1.50;;;;;;;14.34;100.00;100653.41;4952258;28;20038;-77
2022/10/05 02:16:50;;;;;;;2.42;1.38;;;;;;;14.35;100.00;100646.72;4986339;28;20491;-76
2022/10/05 02:19:48;;;;;;;2.90;1.20;;;;;;;14.34;100.00;100644.22;4986599;28;20518;-76
2022/10/05 02:22:16;;;;;;;2.42;1.40;;;;;;;14.34;100.00;100636.66;4984206;28;20049;-76
2022/10/05 02:25:02;;;;;;;3.25;1.30;;;;;;;14.33;100.00;100637.00;5049971;28;20472;-77
2022/10/05 02:27:30;;;;;;;4.18;1.58;;;;;;;14.35;100.00;100635.53;5027614;28;20115;-77
2022/10/05 02:30:00;;;;;;;3.85;1.30;;;;;;;14.33;100.00;100626.63;5043326;28;20039;-77
2022/10/05 02:32:27;;;;;;;4.47;1.63;;;;;;;14.35;100.00;100621.56;5024564;28;20036;-76
2022/10/05 02:34:52;;;;;;;1.98;1.27;;;;;;;14.36;100.00;100620.41;5043029;28;20029;-76
2022/10/05 02:37:21;;;;;;;1.85;1.33;;;;;;;14.36;100.00;100617.63;5009717;28;20044;-77
2022/10/05 02:40:04;;;;;;;4.95;1.35;;;;;;;14.36;100.00;100620.41;5042788;28;20119;-76
2022/10/05 02:43:00;;;;;;;3.40;1.50;;;;;;;14.36;100.00;100603.66;5043594;28;20024;-76
2022/10/05 02:45:31;;;;;;;3.20;1.35;;;;;;;14.35;100.00;100604.81;5039897;28;20041;-76
2022/10/05 02:48:05;;;;;;;1.42;1.13;;;;;;;14.37;100.00;100604.47;5049331;28;20024;-77
2022/10/05 02:50:54;;;;;;;4.88;1.90;;;;;;;14.36;100.00;100603.66;5062588;28;20046;-76
2022/10/05 02:53:35;;;;;;;3.67;1.63;;;;;;;14.37;100.00;100596.91;5062497;28;20043;-76
2022/10/05 02:56:20;;;;;;;3.72;1.50;;;;;;;14.37;100.00;100596.91;5076711;28;20028;-76
2022/10/05 02:59:09;;;;;;;2.13;1.40;;;;;;;14.38;100.00;100595.78;5058624;28;20027;-76
2022/10/05 03:01:49;;;;;;;4.20;1.38;;;;;;;14.36;100.00;100589.69;5033962;28;20484;-76
2022/10/05 03:04:37;;;;;;;3.67;1.30;;;;;;;14.37;100.00;100593.28;5013959;28;20035;-77
2022/10/05 03:07:20;;;;;;;3.88;1.30;;;;;;;14.38;100.00;100589.38;5025430;28;20558;-76
2022/10/05 03:10:10;;;;;;;3.17;1.20;;;;;;;14.35;100.00;100579.66;5042212;28;20437;-77
2022/10/05 03:12:51;;;;;;;1.52;1.02;;;;;;;14.36;100.00;100583.28;5028742;28;20059;-76
2022/10/05 03:15:31;;;;;;;5.97;1.52;;;;;;;14.36;100.00;100583.28;5041019;28;20028;-76
2022/10/05 03:17:56;;;;;;;2.17;1.50;;;;;;;14.37;100.00;100574.56;5076332;28;20102;-76
2022/10/05 03:20:45;;;;;;;6.35;1.55;;;;;;;14.36;100.00;100570.13;5058462;28;20036;-76
2022/10/05 03:23:23;;;;;;;2.95;1.55;;;;;;;14.36;100.00;100567.34;5026162;28;20031;-77
2022/10/05 03:25:57;;;;;;;2.97;1.50;;;;;;;14.36;100.00;100564.53;5026290;28;20029;-76
2022/10/05 03:28:38;;;;;;;4.07;1.52;;;;;;;14.39;100.00;100560.28;5058410;28;20025;-77
2022/10/05 03:31:24;;;;;;;3.40;1.75;;;;;;;14.38;100.00;100562.25;5027182;28;20642;-77
2022/10/05 03:34:05;;;;;;;4.65;1.77;;;;;;;14.38;100.00;100559.47;5058427;28;20115;-76
2022/10/05 03:36:42;;;;;;;3.00;1.25;;;;;;;14.39;100.00;100557.50;5045974;28;20024;-76
2022/10/05 03:39:16;;;;;;;3.63;1.70;;;;;;;14.38;100.00;100556.66;5058319;28;20032;-76
2022/10/05 03:42:03;;;;;;;4.03;1.65;;;;;;;14.40;100.00;100557.19;5025269;28;20029;-76
2022/10/05 03:44:37;;;;;;;3.40;1.65;;;;;;;14.38;100.00;100545.50;5026073;28;20108;-76
2022/10/05 03:47:07;;;;;;;4.13;1.35;;;;;;;14.36;100.00;100544.97;5032536;28;20033;-76
2022/10/05 03:49:51;;;;;;;5.25;1.75;;;;;;;14.39;100.00;100540.72;5061941;28;20024;-77
2022/10/05 03:52:18;;;;;;;3.53;1.60;;;;;;;14.36;100.00;100539.38;5054658;28;20038;-76
2022/10/05 03:54:46;;;;;;;4.15;1.83;;;;;;;14.38;100.00;100533.50;5041610;28;20020;-76
2022/10/05 03:57:12;;;;;;;3.00;1.73;;;;;;;14.36;100.00;100536.59;5008635;28;20025;-76
2022/10/05 03:59:42;;;;;;;2.88;1.23;;;;;;;14.39;100.00;100532.34;5041841;28;20435;-76
2022/10/05 04:02:23;;;;;;;3.13;1.60;;;;;;;14.38;100.00;100533.50;5025453;28;20052;-76
2022/10/05 04:04:59;;;;;;;3.08;1.50;;;;;;;14.36;100.00;100525.41;5032707;28;20116;-77
2022/10/05 04:07:36;;;;;;;3.17;1.60;;;;;;;14.40;100.00;100526.44;5026329;28;20043;-76
2022/10/05 04:10:04;;;;;;;4.30;1.70;;;;;;;14.38;100.00;100523.16;5028987;28;20047;-76
2022/10/05 04:12:36;;;;;;;4.07;1.88;;;;;;;14.38;100.00;100522.31;5043785;28;20037;-76
2022/10/05 04:15:04;;;;;;;2.80;1.20;;;;;;;14.39;100.00;100519.19;5038314;28;20029;-76
2022/10/05 04:17:37;;;;;;;3.67;1.42;;;;;;;14.38;100.00;100522.31;5041573;28;20025;-76
2022/10/05 04:20:06;;;;;;;5.97;1.85;;;;;;;14.36;100.00;100528.22;5034601;28;20028;-76
2022/10/05 04:22:38;;;;;;;3.95;1.58;;;;;;;14.38;100.00;100531.53;5008529;28;20103;-76
2022/10/05 04:25:19;;;;;;;2.67;1.30;;;;;;;14.39;100.00;100523.97;5041155;28;20029;-76
2022/10/05 04:28:01;;;;;;;5.57;2.00;;;;;;;14.39;100.00;100535.13;5025726;28;20117;-76
2022/10/05 04:30:26;;;;;;;2.90;1.52;;;;;;;14.40;100.00;100531.19;5027209;28;20028;-76
2022/10/05 04:32:53;;;;;;;3.63;1.40;;;;;;;14.40;100.00;100532.03;5041521;28;20095;-76
2022/10/05 04:35:37;;;;;;;4.18;2.05;;;;;;;14.39;100.00;100533.16;5041545;28;20447;-77
2022/10/05 04:38:18;;;;;;;3.58;1.70;;;;;;;14.38;100.00;100533.50;5063864;28;20032;-76
2022/10/05 04:41:05;;;;;;;3.83;1.65;;;;;;;14.40;100.00;100537.63;5044935;28;20028;-76
2022/10/05 04:43:42;;;;;;;3.92;1.60;;;;;;;14.37;100.00;100532.66;5061702;28;20480;-76
2022/10/05 04:46:16;;;;;;;2.60;1.52;;;;;;;14.39;100.00;100535.13;5084837;28;20028;-77
2022/10/05 04:49:02;;;;;;;3.33;1.65;;;;;;;14.40;100.00;100526.44;5071231;28;20040;-76
2022/10/05 04:51:55;;;;;;;2.97;1.50;;;;;;;14.39;100.00;100529.56;5058032;28;20052;-77
2022/10/05 04:54:49;;;;;;;2.58;1.33;;;;;;;14.41;100.00;100532.84;5079984;28;20076;-76
2022/10/05 04:57:26;;;;;;;4.40;1.70;;;;;;;14.40;100.00;100525.59;5045576;28;20500;-77
2022/10/05 05:00:00;;;;;;;2.85;1.58;;;;;;;14.38;100.00;100525.94;5052372;28;20046;-77
2022/10/05 05:02:54;;;;;;;3.25;1.35;;;;;;;14.42;100.00;100528.91;5027129;28;20104;-77
2022/10/05 05:05:38;;;;;;;3.63;1.40;;;;;;;14.42;100.00;100528.91;5052887;28;20056;-77
2022/10/05 05:08:22;;;;;;;2.80;1.27;;;;;;;14.40;100.00;100520.88;5044256;28;20099;-77
2022/10/05 05:11:42;;;;;;;2.20;1.50;;;;;;;14.39;100.00;100524.78;5050318;28;20048;-77
2022/10/05 05:14:25;;;;;;;3.60;1.40;;;;;;;14.39;100.00;100523.97;5013401;28;20038;-77
2022/10/05 05:17:12;;;;;;;2.38;1.35;;;;;;;14.39;100.00;100523.97;5078875;28;20055;-77
2022/10/05 05:19:49;;;;;;;2.55;1.40;;;;;;;14.40;100.00;100526.44;5045559;28;20055;-77
2022/10/05 05:22:26;;;;;;;3.72;1.50;;;;;;;14.38;100.00;100523.16;5051444;28;20516;-77
2022/10/05 05:25:03;;;;;;;2.03;1.30;;;;;;;14.38;100.00;100525.13;5064293;28;20028;-77
2022/10/05 05:27:49;;;;;;;2.10;1.38;;;;;;;14.41;100.00;100518.88;5049948;28;20074;-77
2022/10/05 05:30:14;;;;;;;2.30;1.30;;;;;;;14.39;100.00;100524.78;5033193;28;20028;-77
2022/10/05 05:32:58;;;;;;;2.67;1.38;;;;;;;14.40;100.00;100525.59;5078656;28;20511;-77
2022/10/05 05:35:45;;;;;;;3.78;1.52;;;;;;;14.40;100.00;100523.66;5072910;28;20078;-76
2022/10/05 05:38:32;;;;;;;4.25;1.80;;;;;;;14.40;100.00;100518.06;5056049;28;20029;-77
2022/10/05 05:41:11;;;;;;;3.60;1.30;;;;;;;14.38;100.00;100517.56;5046490;28;20056;-76
2022/10/05 05:43:43;;;;;;;2.38;1.27;;;;;;;14.38;100.00;100523.16;5044503;28;20035;-77
2022/10/05 05:46:15;;;;;;;4.05;1.50;;;;;;;14.37;100.00;100515.88;5062604;28;20056;-76
2022/10/05 05:48:45;;;;;;;4.35;1.60;;;;;;;14.36;100.00;100514.25;5022106;28;20036;-76
2022/10/05 05:51:13;;;;;;;3.88;1.40;;;;;;;14.37;100.00;100503.91;5030658;28;20086;-76
2022/10/05 05:53:59;;;;;;;3.40;1.50;;;;;;;14.39;100.00;100507.19;5060481;28;20032;-76
2022/10/05 05:56:36;;;;;;;5.18;1.80;;;;;;;14.38;100.00;100503.59;5027213;28;20044;-76
2022/10/05 05:59:29;;;;;;;3.63;1.40;;;;;;;14.36;100.00;100496.66;5027714;28;20063;-77
2022/10/05 06:02:04;;;;;;;;;;;;;;;14.40;100.00;100509.69;5078447;28;20032;-77
2022/10/05 06:04:34;;;;;;;4.32;1.95;;;;;;;14.40;100.00;100508.84;5079829;28;19931;-76
2022/10/05 06:07:00;;;;;;;4.05;1.85;;;;;;;14.39;100.00;100518.38;5029124;28;20040;-76
2022/10/05 06:09:42;;;;;;;4.95;2.25;;;;;;;14.40;100.00;100514.44;5010903;28;20032;-76
2022/10/05 06:12:21;;;;;;;3.20;2.03;;;;;;;14.37;100.00;100509.47;5054891;28;20044;-76
2022/10/05 06:14:56;;;;;;;3.58;1.70;;;;;;;14.38;100.00;100519.53;5063425;28;20032;-76
2022/10/05 06:17:27;;;;;;;4.07;1.90;;;;;;;14.40;100.00;100523.66;5039851;28;20123;-76
2022/10/05 06:19:55;;;;;;;3.63;2.03;;;;;;;14.40;100.00;100515.28;5059502;28;20031;-76
2022/10/05 06:22:24;;;;;;;3.70;1.90;;;;;;;14.40;100.00;100520.00;5051077;28;20032;-76
2022/10/05 06:25:13;;;;;;;4.50;1.60;;;;;;;14.39;100.00;100524.78;5038338;28;20465;-76
2022/10/05 06:28:01;;;;;;;4.50;2.22;;;;;;;14.39;100.00;100526.75;5056408;28;20032;-71
2022/10/05 06:30:33;;;;;;;3.70;1.85;;;;;;;14.40;100.00;100526.44;5059559;28;20029;-70
2022/10/05 06:33:19;;;;;;;6.95;2.20;;;;;;;14.42;100.00;100523.31;5026351;28;20025;-70
2022/10/05 06:35:52;;;;;;;4.50;1.80;;;;;;;14.44;100.00;100532.22;5076965;28;20059;-77
2022/10/05 06:38:59;;;;;;;5.25;1.73;;;;;;;14.43;100.00;100536.97;5042920;28;20365;-76
2022/10/05 06:41:34;;;;;;;3.45;2.10;;;;;;;14.42;100.00;100540.91;5057405;28;20040;-77
2022/10/05 06:44:14;;;;;;;2.22;1.70;;;;;;;14.45;100.00;100534.69;5042770;28;20036;-77
2022/10/05 06:47:00;;;;;;;4.07;2.17;;;;;;;14.45;100.00;100531.88;5024159;28;20142;-77
2022/10/05 06:49:48;;;;;;;3.08;1.98;;;;;;;14.45;100.00;100525.47;5074362;28;20412;-77
2022/10/05 06:52:42;;;;;;;3.83;2.10;;;;;;;14.47;100.00;100532.41;5026325;28;20051;-77
2022/10/05 06:55:22;;;;;;;5.28;2.60;;;;;;;14.47;100.00;100529.59;5020678;28;20025;-77
2022/10/05 06:57:50;;;;;;;4.85;1.98;;;;;;;14.48;100.00;100527.63;5030694;28;20119;-76
2022/10/05 07:00:18;;;;;;;7.43;2.70;;;;;;;14.49;100.00;100530.13;5058304;28;20745;-77
2022/10/05 07:03:01;;;;;;;4.10;2.30;;;;;;;14.50;100.00;100536.53;5031662;28;20515;-76
2022/10/05 07:05:39;;;;;;;6.00;2.45;;;;;;;14.51;100.00;100541.81;5025527;28;20071;-76
2022/10/05 07:08:32;;;;;;;5.28;2.17;;;;;;;14.55;100.00;100544.00;5059160;28;20067;-77
2022/10/05 07:11:01;;;;;;;;;;;;;;;14.56;100.00;100548.41;5066635;28;20043;-77
2022/10/05 07:13:35;;;;;;;3.22;2.10;;;;;;;14.58;100.00;100546.13;5056934;28;19916;-77
2022/10/05 07:16:22;;;;;;;4.07;2.03;;;;;;;14.60;100.00;100546.63;5060023;28;20044;-77
2022/10/05 07:19:06;;;;;;;3.88;2.28;;;;;;;14.61;100.00;100549.09;5044736;28;20028;-76
2022/10/05 07:21:42;;;;;;;6.18;2.70;;;;;;;14.64;100.00;100554.06;5053633;28;20036;-76
2022/10/05 07:24:27;;;;;;;6.05;2.55;;;;;;;14.67;100.00;100555.38;5042196;28;20029;-76
2022/10/05 07:27:23;;;;;;;6.35;2.83;;;;;;;14.68;100.00;100560.66;5069467;28;20111;-77
2022/10/05 07:29:55;;;;;;;4.47;2.22;;;;;;;14.70;100.00;100568.72;5061794;28;20052;-77
2022/10/05 07:32:42;;;;;;;6.80;2.40;;;;;;;14.72;100.00;100560.84;5065100;28;20060;-76
2022/10/05 07:38:11;;;;;;;4.97;2.33;;;;;;;14.80;100.00;100559.25;5070796;28;20032;-77
2022/10/05 07:40:40;;;;;;;3.95;2.60;;;;;;;14.83;100.00;100556.63;5071742;28;20024;-77
2022/10/05 07:43:23;;;;;;;4.47;2.38;;;;;;;14.86;100.00;100555.97;5039945;28;20501;-77
2022/10/05 07:45:56;;;;;;;4.78;2.30;;;;;;;14.91;100.00;100564.22;5061683;28;20090;-77
2022/10/05 07:48:43;;;;;;;3.33;2.13;;;;;;;14.95;100.00;100570.00;5066566;28;20033;-77
2022/10/05 07:51:29;;;;;;;5.75;2.75;;;;;;;15.04;100.00;100562.47;5024483;28;20425;-77
2022/10/05 07:54:19;;;;;;;5.85;2.85;;;;;;;15.11;100.00;100567.59;5088725;28;20036;-77
2022/10/05 07:56:48;;;;;;;6.53;2.75;;;;;;;15.17;100.00;100564.31;5082279;28;20031;-77
2022/10/05 07:59:16;;;;;;;5.03;2.30;;;;;;;15.25;100.00;100561.91;5041868;28;20075;-76
2022/10/05 08:01:44;;;;;;;5.10;2.47;;;;;;;15.31;100.00;100571.78;5041622;28;20100;-77
2022/10/05 08:04:31;;;;;;;7.60;2.72;;;;;;;15.40;100.00;100569.81;5008811;28;20024;-76
2022/10/05 08:07:01;;;;;;;7.75;3.05;;;;;;;15.49;100.00;100562.28;5008249;28;20500;-77
2022/10/05 08:09:44;;;;;;;5.72;2.88;;;;;;;15.57;100.00;100563.44;5041232;28;20035;-77
2022/10/05 08:12:24;;;;;;;6.35;2.92;;;;;;;15.67;100.00;100563.13;5066509;28;20037;-77
2022/10/05 08:14:55;;;;;;;6.00;3.00;;;;;;;15.76;100.00;100561.19;5062335;28;20477;-77
2022/10/05 08:17:38;;;;;;;6.18;2.75;;;;;;;15.86;100.00;100566.50;5045803;28;20024;-77
2022/10/05 08:20:30;;;;;;;6.03;2.85;;;;;;;15.94;100.00;100572.44;5062072;28;20044;-77
2022/10/05 08:23:22;;;;;;;6.10;3.00;;;;;;;16.04;100.00;100569.28;5046569;28;20039;-77
2022/10/05 08:26:05;;;;;;;5.97;2.88;;;;;;;16.13;100.00;100566.47;5014043;28;20037;-77
2022/10/05 08:28:39;;;;;;;5.15;2.90;;;;;;;16.20;100.00;100567.63;5063398;28;20036;-77
2022/10/05 08:31:13;;;;;;;8.75;3.20;;;;;;;16.30;100.00;100567.31;5066901;28;20033;-77
2022/10/05 08:34:02;;;;;;;5.05;2.50;;;;;;;16.40;100.00;100568.13;5069418;28;20028;-77
2022/10/05 08:36:50;;;;;;;7.60;2.70;;;;;;;16.51;100.00;100569.41;5042427;28;20024;-77
2022/10/05 08:39:19;;;;;;;8.95;2.83;;;;;;;16.58;100.00;100572.53;5093341;28;20036;-77
2022/10/05 08:42:09;;;;;;;7.43;2.63;;;;;;;16.64;100.00;100574.00;5009094;28;20094;-77
2022/10/05 08:44:54;;;;;;;7.88;3.03;;;;;;;16.75;100.00;100580.91;5049436;28;20086;-77
2022/10/05 08:47:36;;;;;;;7.32;2.80;;;;;;;16.86;100.00;100566.56;5062890;28;20041;-78
2022/10/05 08:50:16;;;;;;;9.18;3.17;;;;;;;16.94;100.00;100566.53;5045097;28;20388;-78
2022/10/05 08:53:06;;;;;;;9.40;3.25;;;;;;;17.03;100.00;100565.69;5061367;28;20428;-78
2022/10/05 08:55:38;;;;;;;9.82;3.28;;;;;;;17.10;100.00;100578.00;5046786;28;20132;-77
2022/10/05 08:58:36;;;;;;;7.30;3.17;;;;;;;17.18;100.00;100576.31;5061486;28;20056;-77
2022/10/05 09:01:36;;;;;;;6.65;2.58;;;;;;;17.28;100.00;100584.38;5078129;28;20043;-78
2022/10/05 09:04:20;;;;;;;7.63;3.28;;;;;;;17.37;100.00;100584.34;5044366;28;20051;-77
2022/10/05 09:07:09;;;;;;;8.02;3.03;;;;;;;17.45;100.00;100586.28;5078970;28;20039;-78
2022/10/05 09:10:17;;;;;;;7.15;2.97;;;;;;;17.52;100.00;100583.72;5040941;28;20029;-77
2022/10/05 09:12:55;;;;;;;9.50;2.90;;;;;;;17.60;100.00;100588.47;5047455;28;20037;-78
2022/10/05 09:15:30;;;;;;;8.65;2.60;;;;;;;17.68;99.19;100588.78;5060479;28;20131;-78
2022/10/05 09:18:26;;;;;;;4.75;1.77;;;;;;;17.78;94.92;100594.00;5044142;28;20485;-78
2022/10/05 09:20:52;;;;;;;7.32;1.92;;;;;;;17.85;92.69;100588.69;5027383;28;20028;-78
2022/10/05 09:23:30;;;;;;;6.72;2.33;;;;;;;17.94;93.54;100591.44;5053141;28;20465;-78
2022/10/05 09:26:19;;;;;;;5.75;2.00;;;;;;;18.01;93.20;100591.72;5037973;28;20033;-78
2022/10/05 09:29:33;;;;;;;9.75;1.95;;;;;;;18.08;91.52;100601.25;5034227;28;20106;-79
2022/10/05 09:32:14;;;;;;;7.93;1.67;;;;;;;18.18;89.73;100602.81;5063043;28;20036;-78
2022/10/05 09:35:04;;;;;;;4.68;1.55;;;;;;;18.23;89.44;100598.97;5043810;28;20033;-78
2022/10/05 09:37:49;;;;;;;5.85;1.83;;;;;;;18.28;89.07;100604.41;5028594;28;20036;-78
2022/10/05 09:40:40;;;;;;;4.85;1.90;;;;;;;18.32;88.41;100602.53;5069665;28;20028;-78
2022/10/05 09:43:45;;;;;;;5.20;1.60;;;;;;;18.37;88.81;100602.31;5078743;28;20036;-78
2022/10/05 09:46:22;;;;;;;3.60;1.52;;;;;;;18.44;87.35;100605.41;5039061;28;20037;-78
2022/10/05 09:49:03;;;;;;;4.85;1.73;;;;;;;18.50;86.89;100595.59;5060187;28;20032;-78
2022/10/05 09:51:59;;;;;;;5.53;1.50;;;;;;;18.53;86.37;100597.72;5060168;28;20040;-79
2022/10/05 09:54:28;;;;;;;5.82;1.25;;;;;;;18.62;86.25;100610.88;5047375;28;20100;-78
2022/10/05 09:57:06;;;;;;;5.45;1.60;;;;;;;18.64;86.01;100620.59;5060016;28;20465;-78
2022/10/05 09:59:34;;;;;;;4.03;1.30;;;;;;;18.67;85.10;100625.53;5027338;28;20385;-78
2022/10/05 10:02:31;;;;;;;8.23;1.42;;;;;;;18.73;84.76;100628.97;5043505;28;20111;-78
2022/10/05 10:05:42;;;;;;;3.88;1.25;;;;;;;18.80;84.80;100629.22;5057935;28;20024;-79
2022/10/05 10:08:19;;;;;;;5.35;1.35;;;;;;;18.85;84.91;100637.44;5055472;28;20045;-78
2022/10/05 10:10:48;;;;;;;6.13;1.75;;;;;;;18.90;84.97;100633.63;5077520;28;20083;-79
2022/10/05 10:13:35;;;;;;;5.18;1.40;;;;;;;18.94;84.90;100643.84;5061082;28;20036;-79
2022/10/05 10:16:29;;;;;;;4.50;1.40;;;;;;;18.97;85.79;100634.69;5043285;28;20078;-79
2022/10/05 10:19:13;;;;;;;;;;;;;;;19.02;83.22;100630.00;5089495;28;20032;-79
2022/10/05 10:21:59;;;;;;;6.30;1.63;;;;;;;19.06;83.44;100626.16;5057076;28;20361;-79
2022/10/05 10:24:55;;;;;;;4.10;1.20;;;;;;;19.12;84.20;100635.19;5045034;28;20115;-79
2022/10/05 10:27:39;;;;;;;6.13;1.33;;;;;;;19.18;84.03;100634.59;5059904;28;20060;-79
2022/10/05 10:30:28;;;;;;;4.55;1.10;;;;;;;19.23;82.71;100630.75;5081071;28;20032;-79
2022/10/05 10:33:14;;;;;;;4.45;1.30;;;;;;;19.31;83.00;100629.00;5058132;28;20044;-79
2022/10/05 10:35:52;;;;;;;7.22;1.00;;;;;;;19.37;80.59;100625.59;5026041;28;20027;-79
2022/10/05 10:38:22;;;;;;;5.57;1.58;;;;;;;19.42;80.05;100625.38;5044056;28;20457;-79
2022/10/05 10:41:00;;;;;;;5.93;1.13;;;;;;;19.47;80.60;100635.56;5059798;28;20337;-79
2022/10/05 10:43:42;;;;;;;7.13;1.40;;;;;;;19.52;79.40;100624.06;5043646;28;20119;-79
2022/10/05 10:46:38;;;;;;;5.65;1.40;;;;;;;19.57;78.63;100637.94;5041483;28;20029;-79
2022/10/05 10:49:10;;;;;;;3.55;1.02;;;;;;;19.62;79.36;100634.88;5053818;28;20028;-79
2022/10/05 10:51:42;;;;;;;4.70;1.00;;;;;;;19.63;78.88;100621.59;5042479;28;20050;-79
2022/10/05 10:54:20;;;;;;;4.60;1.20;;;;;;;19.69;78.49;100620.22;5077159;28;20082;-79
2022/10/05 10:56:46;;;;;;;4.68;1.10;;;;;;;19.72;77.71;100616.69;5071167;28;20404;-79
2022/10/05 10:59:38;;;;;;;9.13;1.48;;;;;;;19.77;76.22;100613.63;5059519;28;20036;-79
2022/10/05 11:02:28;;;;;;;4.95;0.90;;;;;;;19.81;76.70;100620.22;5055599;28;20082;-79
2022/10/05 11:05:16;;;;;;;6.55;1.10;;;;;;;19.88;77.34;100616.00;5059463;28;20025;-79
2022/10/05 11:07:47;;;;;;;7.03;1.20;;;;;;;19.94;77.78;100608.91;5059432;28;20032;-79
2022/10/05 11:10:22;;;;;;;7.97;1.52;;;;;;;20.01;76.59;100614.78;5043271;28;20102;-79
2022/10/05 11:13:15;;;;;;;8.30;1.25;;;;;;;20.11;76.95;100619.09;5040357;28;20083;-79
2022/10/05 11:16:06;;;;;;;8.98;1.42;;;;;;;20.23;77.94;100616.28;5031131;28;20063;-80
2022/10/05 11:18:55;;;;;;;7.35;1.10;;;;;;;20.33;76.61;100629.03;5027877;28;20028;-75
2022/10/05 11:21:35;;;;;;;8.45;1.27;;;;;;;20.43;77.45;100625.72;5041601;28;20058;-79
2022/10/05 11:24:29;;;;;;;6.00;1.20;;;;;;;20.51;77.30;100633.22;5042741;28;20028;-79
2022/10/05 11:26:57;;;;;;;8.23;1.33;;;;;;;20.62;76.81;100628.72;5050322;28;20115;-79
2022/10/05 11:30:00;;;;;;;5.80;1.30;;;;;;;20.70;76.14;100636.22;5042178;28;20081;-79
2022/10/05 11:33:10;;;;;;;6.30;1.13;;;;;;;20.78;74.17;100634.41;5041949;28;20028;-78
2022/10/05 11:35:54;;;;;;;7.75;1.35;;;;;;;20.84;74.05;100637.78;4948331;28;20047;-79
2022/10/05 11:38:38;;;;;;;6.93;0.90;;;;;;;20.91;74.66;100630.34;5055348;28;20038;-79
2022/10/05 11:41:21;;;;;;;5.80;1.08;;;;;;;20.94;74.39;100631.63;5076200;28;20051;-79
2022/10/05 11:44:09;;;;;;;5.95;1.10;;;;;;;21.02;73.45;100636.28;5076615;28;20033;-78
2022/10/05 11:46:37;;;;;;;6.07;1.00;;;;;;;21.05;72.26;100646.03;5049302;28;20115;-79
2022/10/05 11:49:31;;;;;;;8.15;1.13;;;;;;;21.09;72.49;100642.13;5054211;28;20029;-79
2022/10/05 11:52:19;;;;;;;11.70;1.50;;;;;;;21.17;72.76;100643.97;5057218;28;20447;-78
2022/10/05 11:54:51;;;;;;;5.25;1.10;;;;;;;21.18;70.97;100636.31;5039172;28;20041;-79
2022/10/05 11:57:36;;;;;;;7.38;1.30;;;;;;;21.25;71.46;100644.94;5075523;28;20032;-78
2022/10/05 12:00:24;;;;;;;7.50;1.40;;;;;;;21.24;71.78;100643.31;5041859;28;20033;-79
2022/10/05 12:03:08;;;;;;;10.60;1.40;;;;;;;21.29;73.08;100633.75;5058060;28;20136;-79
2022/10/05 12:05:55;;;;;;;9.57;1.27;;;;;;;21.34;73.39;100631.50;5057915;28;20485;-79
2022/10/05 12:08:26;;;;;;;5.03;1.45;;;;;;;21.39;73.29;100627.59;5058278;28;20033;-79
2022/10/05 12:11:05;;;;;;;6.68;1.20;;;;;;;21.47;73.63;100640.69;5058372;28;20075;-78
2022/10/05 12:13:56;;;;;;;4.43;1.10;;;;;;;21.55;73.01;100630.41;5043324;28;20017;-79
2022/10/05 12:16:30;;;;;;;5.82;1.70;;;;;;;21.62;72.56;100627.78;5073538;28;20120;-78
2022/10/05 12:19:04;;;;;;;10.07;1.67;;;;;;;21.68;71.71;100628.31;5038406;28;20099;-78
2022/10/05 12:21:58;;;;;;;2.70;1.00;;;;;;;21.73;72.69;100619.53;5058545;28;20056;-79